sensor_id;sensor_type;location;lat;lon;timestamp;P1;durP1;ratioP1;P2;durP2;ratioP2
3971;SDS011;2000;47.572;14.202;2023-11-21T00:00:14;9.00;;;3.17;;
3971;SDS011;2000;47.572;14.202;2023-11-21T00:02:42;8.63;;;3.00;;
3971;SDS011;2000;47.572;14.202;2023-11-21T00:05:11;4.43;;;2.63;;
3971;SDS011;2000;47.572;14.202;2023-11-21T00:07:40;6.67;;;2.90;;
3971;SDS011;2000;47.572;14.202;2023-11-21T00:10:08;4.90;;;2.80;;
3971;SDS011;2000;47.572;14.202;2023-11-21T00:12:37;3.93;;;2.07;;
3971;SDS011;2000;47.572;14.202;2023-11-21T00:15:04;5.03;;;2.50;;
3971;SDS011;2000;47.572;14.202;2023-11-21T00:17:32;5.67;;;2.57;;
3971;SDS011;2000;47.572;14.202;2023-11-21T00:19:59;3.50;;;2.23;;
3971;SDS011;2000;47.572;14.202;2023-11-21T00:22:26;21.93;;;2.60;;
3971;SDS011;2000;47.572;14.202;2023-11-21T00:24:53;3.33;;;2.73;;
3971;SDS011;2000;47.572;14.202;2023-11-21T00:27:20;6.10;;;2.00;;
3971;SDS011;2000;47.572;14.202;2023-11-21T00:29:47;5.60;;;2.27;;
3971;SDS011;2000;47.572;14.202;2023-11-21T00:32:14;3.43;;;2.03;;
3971;SDS011;2000;47.572;14.202;2023-11-21T00:34:41;1.60;;;1.50;;
3971;SDS011;2000;47.572;14.202;2023-11-21T00:37:09;9.93;;;2.80;;
3971;SDS011;2000;47.572;14.202;2023-11-21T00:39:36;3.67;;;1.80;;
3971;SDS011;2000;47.572;14.202;2023-11-21T00:42:03;2.57;;;1.80;;
3971;SDS011;2000;47.572;14.202;2023-11-21T00:44:31;4.63;;;2.37;;
3971;SDS011;2000;47.572;14.202;2023-11-21T00:46:58;9.33;;;3.43;;
3971;SDS011;2000;47.572;14.202;2023-11-21T00:49:25;2.83;;;1.83;;
3971;SDS011;2000;47.572;14.202;2023-11-21T00:51:52;3.17;;;2.17;;
3971;SDS011;2000;47.572;14.202;2023-11-21T00:54:19;4.40;;;2.40;;
3971;SDS011;2000;47.572;14.202;2023-11-21T00:56:46;4.57;;;2.20;;
3971;SDS011;2000;47.572;14.202;2023-11-21T00:59:14;8.73;;;2.60;;
3971;SDS011;2000;47.572;14.202;2023-11-21T01:01:41;2.20;;;1.80;;
3971;SDS011;2000;47.572;14.202;2023-11-21T01:04:08;4.47;;;1.93;;
3971;SDS011;2000;47.572;14.202;2023-11-21T01:06:35;4.07;;;2.20;;
3971;SDS011;2000;47.572;14.202;2023-11-21T01:09:02;9.17;;;2.43;;
3971;SDS011;2000;47.572;14.202;2023-11-21T01:11:35;2.83;;;2.27;;
3971;SDS011;2000;47.572;14.202;2023-11-21T01:14:04;5.40;;;2.37;;
3971;SDS011;2000;47.572;14.202;2023-11-21T01:16:31;8.33;;;1.83;;
3971;SDS011;2000;47.572;14.202;2023-11-21T01:19:02;8.60;;;2.30;;
3971;SDS011;2000;47.572;14.202;2023-11-21T01:21:31;5.13;;;1.97;;
3971;SDS011;2000;47.572;14.202;2023-11-21T01:23:58;2.10;;;1.40;;
3971;SDS011;2000;47.572;14.202;2023-11-21T01:26:25;2.60;;;1.60;;
3971;SDS011;2000;47.572;14.202;2023-11-21T01:28:52;3.63;;;2.13;;
3971;SDS011;2000;47.572;14.202;2023-11-21T01:31:19;2.87;;;2.23;;
3971;SDS011;2000;47.572;14.202;2023-11-21T01:33:47;2.33;;;2.10;;
3971;SDS011;2000;47.572;14.202;2023-11-21T01:36:15;3.87;;;2.00;;
3971;SDS011;2000;47.572;14.202;2023-11-21T01:38:44;7.20;;;1.80;;
3971;SDS011;2000;47.572;14.202;2023-11-21T01:41:12;3.17;;;2.80;;
3971;SDS011;2000;47.572;14.202;2023-11-21T01:43:40;3.43;;;1.43;;
3971;SDS011;2000;47.572;14.202;2023-11-21T01:46:08;1.27;;;1.17;;
3971;SDS011;2000;47.572;14.202;2023-11-21T01:48:35;7.30;;;1.57;;
3971;SDS011;2000;47.572;14.202;2023-11-21T01:51:02;3.57;;;2.03;;
3971;SDS011;2000;47.572;14.202;2023-11-21T01:53:29;2.90;;;2.07;;
3971;SDS011;2000;47.572;14.202;2023-11-21T01:55:56;7.63;;;2.27;;
3971;SDS011;2000;47.572;14.202;2023-11-21T01:58:25;8.00;;;3.03;;
3971;SDS011;2000;47.572;14.202;2023-11-21T02:00:53;5.43;;;2.23;;
3971;SDS011;2000;47.572;14.202;2023-11-21T02:03:21;4.97;;;3.10;;
3971;SDS011;2000;47.572;14.202;2023-11-21T02:05:48;5.73;;;3.93;;
3971;SDS011;2000;47.572;14.202;2023-11-21T02:08:16;8.33;;;3.13;;
3971;SDS011;2000;47.572;14.202;2023-11-21T02:10:43;8.00;;;3.17;;
3971;SDS011;2000;47.572;14.202;2023-11-21T02:13:10;5.80;;;2.63;;
3971;SDS011;2000;47.572;14.202;2023-11-21T02:15:37;4.37;;;2.43;;
3971;SDS011;2000;47.572;14.202;2023-11-21T02:18:05;6.67;;;3.47;;
3971;SDS011;2000;47.572;14.202;2023-11-21T02:20:33;2.90;;;2.13;;
3971;SDS011;2000;47.572;14.202;2023-11-21T02:23:03;3.57;;;2.13;;
3971;SDS011;2000;47.572;14.202;2023-11-21T02:25:32;4.17;;;2.70;;
3971;SDS011;2000;47.572;14.202;2023-11-21T02:28:01;9.00;;;3.37;;
3971;SDS011;2000;47.572;14.202;2023-11-21T02:30:29;6.30;;;2.50;;
3971;SDS011;2000;47.572;14.202;2023-11-21T02:33:00;2.27;;;1.73;;
3971;SDS011;2000;47.572;14.202;2023-11-21T02:35:28;10.20;;;2.50;;
3971;SDS011;2000;47.572;14.202;2023-11-21T02:37:58;8.20;;;2.37;;
3971;SDS011;2000;47.572;14.202;2023-11-21T02:40:25;2.27;;;2.00;;
3971;SDS011;2000;47.572;14.202;2023-11-21T02:42:53;4.27;;;1.87;;
3971;SDS011;2000;47.572;14.202;2023-11-21T02:45:21;2.90;;;2.20;;
3971;SDS011;2000;47.572;14.202;2023-11-21T02:47:50;3.63;;;2.27;;
3971;SDS011;2000;47.572;14.202;2023-11-21T02:50:17;4.50;;;2.33;;
3971;SDS011;2000;47.572;14.202;2023-11-21T02:52:45;4.73;;;1.80;;
3971;SDS011;2000;47.572;14.202;2023-11-21T02:55:13;4.90;;;2.10;;
3971;SDS011;2000;47.572;14.202;2023-11-21T02:57:40;8.13;;;2.10;;
3971;SDS011;2000;47.572;14.202;2023-11-21T03:00:07;5.73;;;2.00;;
3971;SDS011;2000;47.572;14.202;2023-11-21T03:02:36;8.17;;;2.10;;
3971;SDS011;2000;47.572;14.202;2023-11-21T03:05:06;4.17;;;2.77;;
3971;SDS011;2000;47.572;14.202;2023-11-21T03:07:39;2.90;;;2.23;;
3971;SDS011;2000;47.572;14.202;2023-11-21T03:10:07;3.63;;;1.67;;
3971;SDS011;2000;47.572;14.202;2023-11-21T03:12:38;1.87;;;1.73;;
3971;SDS011;2000;47.572;14.202;2023-11-21T03:15:06;2.90;;;1.83;;
3971;SDS011;2000;47.572;14.202;2023-11-21T03:17:34;4.93;;;2.57;;
3971;SDS011;2000;47.572;14.202;2023-11-21T03:20:02;3.17;;;1.90;;
3971;SDS011;2000;47.572;14.202;2023-11-21T03:22:31;5.93;;;2.60;;
3971;SDS011;2000;47.572;14.202;2023-11-21T03:24:58;4.07;;;2.47;;
3971;SDS011;2000;47.572;14.202;2023-11-21T03:27:26;4.00;;;2.13;;
3971;SDS011;2000;47.572;14.202;2023-11-21T03:29:53;7.10;;;2.37;;
3971;SDS011;2000;47.572;14.202;2023-11-21T03:32:21;2.83;;;1.70;;
3971;SDS011;2000;47.572;14.202;2023-11-21T03:34:55;2.67;;;1.70;;
3971;SDS011;2000;47.572;14.202;2023-11-21T03:37:25;2.93;;;2.20;;
3971;SDS011;2000;47.572;14.202;2023-11-21T03:39:55;3.10;;;1.90;;
3971;SDS011;2000;47.572;14.202;2023-11-21T03:42:23;1.50;;;1.40;;
3971;SDS011;2000;47.572;14.202;2023-11-21T03:44:53;3.30;;;1.77;;
3971;SDS011;2000;47.572;14.202;2023-11-21T03:47:20;7.17;;;2.00;;
3971;SDS011;2000;47.572;14.202;2023-11-21T03:49:48;2.60;;;1.27;;
3971;SDS011;2000;47.572;14.202;2023-11-21T03:52:15;2.20;;;1.53;;
3971;SDS011;2000;47.572;14.202;2023-11-21T03:54:43;3.57;;;1.37;;
3971;SDS011;2000;47.572;14.202;2023-11-21T03:57:10;7.50;;;2.60;;
3971;SDS011;2000;47.572;14.202;2023-11-21T03:59:41;9.97;;;2.87;;
3971;SDS011;2000;47.572;14.202;2023-11-21T04:02:08;2.63;;;1.10;;
3971;SDS011;2000;47.572;14.202;2023-11-21T04:04:36;10.40;;;1.80;;
3971;SDS011;2000;47.572;14.202;2023-11-21T04:07:03;2.30;;;1.53;;
3971;SDS011;2000;47.572;14.202;2023-11-21T04:09:31;2.20;;;1.20;;
3971;SDS011;2000;47.572;14.202;2023-11-21T04:11:58;2.33;;;1.23;;
3971;SDS011;2000;47.572;14.202;2023-11-21T04:14:25;3.67;;;1.53;;
3971;SDS011;2000;47.572;14.202;2023-11-21T04:16:52;3.70;;;1.33;;
3971;SDS011;2000;47.572;14.202;2023-11-21T04:19:20;7.03;;;1.70;;
3971;SDS011;2000;47.572;14.202;2023-11-21T04:21:47;2.60;;;1.37;;
3971;SDS011;2000;47.572;14.202;2023-11-21T04:24:15;4.20;;;1.60;;
3971;SDS011;2000;47.572;14.202;2023-11-21T04:26:43;2.37;;;1.50;;
3971;SDS011;2000;47.572;14.202;2023-11-21T04:29:10;2.20;;;1.50;;
3971;SDS011;2000;47.572;14.202;2023-11-21T04:31:37;4.97;;;1.63;;
3971;SDS011;2000;47.572;14.202;2023-11-21T04:34:04;4.60;;;2.47;;
3971;SDS011;2000;47.572;14.202;2023-11-21T04:36:31;2.03;;;1.00;;
3971;SDS011;2000;47.572;14.202;2023-11-21T04:38:58;3.33;;;1.43;;
3971;SDS011;2000;47.572;14.202;2023-11-21T04:41:25;3.60;;;3.10;;
3971;SDS011;2000;47.572;14.202;2023-11-21T04:43:53;1.03;;;0.93;;
3971;SDS011;2000;47.572;14.202;2023-11-21T04:46:20;2.70;;;1.10;;
3971;SDS011;2000;47.572;14.202;2023-11-21T04:48:47;1.00;;;0.90;;
3971;SDS011;2000;47.572;14.202;2023-11-21T04:51:14;2.70;;;1.30;;
3971;SDS011;2000;47.572;14.202;2023-11-21T04:53:41;2.00;;;1.20;;
3971;SDS011;2000;47.572;14.202;2023-11-21T04:56:08;6.53;;;1.60;;
3971;SDS011;2000;47.572;14.202;2023-11-21T04:58:35;3.13;;;1.03;;
3971;SDS011;2000;47.572;14.202;2023-11-21T05:01:02;2.83;;;1.33;;
3971;SDS011;2000;47.572;14.202;2023-11-21T05:03:34;2.80;;;1.83;;
3971;SDS011;2000;47.572;14.202;2023-11-21T05:06:01;1.03;;;0.90;;
3971;SDS011;2000;47.572;14.202;2023-11-21T05:08:28;4.53;;;1.07;;
3971;SDS011;2000;47.572;14.202;2023-11-21T05:10:55;1.53;;;1.13;;
3971;SDS011;2000;47.572;14.202;2023-11-21T05:13:23;3.50;;;1.30;;
3971;SDS011;2000;47.572;14.202;2023-11-21T05:15:54;7.40;;;1.93;;
3971;SDS011;2000;47.572;14.202;2023-11-21T05:18:23;1.63;;;1.13;;
3971;SDS011;2000;47.572;14.202;2023-11-21T05:20:53;4.50;;;1.00;;
3971;SDS011;2000;47.572;14.202;2023-11-21T05:23:21;2.00;;;1.07;;
3971;SDS011;2000;47.572;14.202;2023-11-21T05:25:48;3.50;;;1.20;;
3971;SDS011;2000;47.572;14.202;2023-11-21T05:28:15;3.43;;;1.30;;
3971;SDS011;2000;47.572;14.202;2023-11-21T05:30:42;4.53;;;1.50;;
3971;SDS011;2000;47.572;14.202;2023-11-21T05:33:09;9.23;;;2.03;;
3971;SDS011;2000;47.572;14.202;2023-11-21T05:35:36;2.10;;;0.97;;
3971;SDS011;2000;47.572;14.202;2023-11-21T05:38:03;6.20;;;1.93;;
3971;SDS011;2000;47.572;14.202;2023-11-21T05:40:30;6.17;;;1.77;;
3971;SDS011;2000;47.572;14.202;2023-11-21T05:42:57;4.10;;;2.27;;
3971;SDS011;2000;47.572;14.202;2023-11-21T05:45:24;3.83;;;2.10;;
3971;SDS011;2000;47.572;14.202;2023-11-21T05:47:51;3.17;;;2.50;;
3971;SDS011;2000;47.572;14.202;2023-11-21T05:50:18;7.53;;;2.70;;
3971;SDS011;2000;47.572;14.202;2023-11-21T05:52:46;3.63;;;2.40;;
3971;SDS011;2000;47.572;14.202;2023-11-21T05:55:14;6.47;;;2.30;;
3971;SDS011;2000;47.572;14.202;2023-11-21T05:57:41;3.47;;;2.20;;
3971;SDS011;2000;47.572;14.202;2023-11-21T06:00:11;8.27;;;2.00;;
3971;SDS011;2000;47.572;14.202;2023-11-21T06:02:45;2.67;;;2.00;;
3971;SDS011;2000;47.572;14.202;2023-11-21T06:05:18;3.70;;;2.77;;
3971;SDS011;2000;47.572;14.202;2023-11-21T06:07:46;6.93;;;2.40;;
3971;SDS011;2000;47.572;14.202;2023-11-21T06:10:13;6.40;;;1.83;;
3971;SDS011;2000;47.572;14.202;2023-11-21T06:12:41;8.77;;;2.20;;
3971;SDS011;2000;47.572;14.202;2023-11-21T06:15:10;2.63;;;1.87;;
3971;SDS011;2000;47.572;14.202;2023-11-21T06:17:41;10.23;;;2.57;;
3971;SDS011;2000;47.572;14.202;2023-11-21T06:20:09;1.87;;;1.60;;
3971;SDS011;2000;47.572;14.202;2023-11-21T06:22:38;2.57;;;1.20;;
3971;SDS011;2000;47.572;14.202;2023-11-21T06:25:06;2.63;;;1.30;;
3971;SDS011;2000;47.572;14.202;2023-11-21T06:27:39;9.80;;;4.87;;
3971;SDS011;2000;47.572;14.202;2023-11-21T06:30:08;12.40;;;5.57;;
3971;SDS011;2000;47.572;14.202;2023-11-21T06:32:36;16.03;;;7.33;;
3971;SDS011;2000;47.572;14.202;2023-11-21T06:35:04;18.63;;;9.93;;
3971;SDS011;2000;47.572;14.202;2023-11-21T06:37:33;12.43;;;7.53;;
3971;SDS011;2000;47.572;14.202;2023-11-21T06:40:00;24.33;;;11.57;;
3971;SDS011;2000;47.572;14.202;2023-11-21T06:42:30;25.57;;;10.83;;
3971;SDS011;2000;47.572;14.202;2023-11-21T06:44:57;28.53;;;10.27;;
3971;SDS011;2000;47.572;14.202;2023-11-21T06:47:25;19.30;;;9.70;;
3971;SDS011;2000;47.572;14.202;2023-11-21T06:49:53;14.43;;;7.93;;
3971;SDS011;2000;47.572;14.202;2023-11-21T06:52:21;12.53;;;3.97;;
3971;SDS011;2000;47.572;14.202;2023-11-21T06:54:50;13.10;;;4.20;;
3971;SDS011;2000;47.572;14.202;2023-11-21T06:57:18;9.23;;;3.83;;
3971;SDS011;2000;47.572;14.202;2023-11-21T06:59:45;8.90;;;5.07;;
3971;SDS011;2000;47.572;14.202;2023-11-21T07:02:12;7.10;;;4.30;;
3971;SDS011;2000;47.572;14.202;2023-11-21T07:04:39;11.30;;;4.80;;
3971;SDS011;2000;47.572;14.202;2023-11-21T07:07:06;15.70;;;5.80;;
3971;SDS011;2000;47.572;14.202;2023-11-21T07:09:34;10.00;;;5.77;;
3971;SDS011;2000;47.572;14.202;2023-11-21T07:12:02;9.63;;;5.43;;
3971;SDS011;2000;47.572;14.202;2023-11-21T07:14:30;25.87;;;6.00;;
3971;SDS011;2000;47.572;14.202;2023-11-21T07:16:58;6.53;;;4.70;;
3971;SDS011;2000;47.572;14.202;2023-11-21T07:19:25;6.50;;;3.00;;
3971;SDS011;2000;47.572;14.202;2023-11-21T07:21:53;7.73;;;4.03;;
3971;SDS011;2000;47.572;14.202;2023-11-21T07:24:21;14.33;;;3.90;;
3971;SDS011;2000;47.572;14.202;2023-11-21T07:26:53;7.03;;;4.70;;
3971;SDS011;2000;47.572;14.202;2023-11-21T07:29:23;4.73;;;3.80;;
3971;SDS011;2000;47.572;14.202;2023-11-21T07:31:52;10.57;;;3.63;;
3971;SDS011;2000;47.572;14.202;2023-11-21T07:34:20;4.80;;;2.67;;
3971;SDS011;2000;47.572;14.202;2023-11-21T07:36:48;6.07;;;2.30;;
3971;SDS011;2000;47.572;14.202;2023-11-21T07:39:14;6.87;;;4.30;;
3971;SDS011;2000;47.572;14.202;2023-11-21T07:41:45;24.53;;;10.60;;
3971;SDS011;2000;47.572;14.202;2023-11-21T07:44:16;22.43;;;9.00;;
3971;SDS011;2000;47.572;14.202;2023-11-21T07:46:44;20.73;;;9.60;;
3971;SDS011;2000;47.572;14.202;2023-11-21T07:49:11;15.17;;;6.23;;
3971;SDS011;2000;47.572;14.202;2023-11-21T07:51:43;13.57;;;6.07;;
3971;SDS011;2000;47.572;14.202;2023-11-21T07:54:10;10.00;;;5.13;;
3971;SDS011;2000;47.572;14.202;2023-11-21T07:56:38;14.30;;;6.60;;
3971;SDS011;2000;47.572;14.202;2023-11-21T07:59:05;7.67;;;4.70;;
3971;SDS011;2000;47.572;14.202;2023-11-21T08:01:32;10.77;;;6.57;;
3971;SDS011;2000;47.572;14.202;2023-11-21T08:04:00;19.80;;;7.33;;
3971;SDS011;2000;47.572;14.202;2023-11-21T08:06:31;16.63;;;6.67;;
3971;SDS011;2000;47.572;14.202;2023-11-21T08:08:59;7.67;;;5.27;;
3971;SDS011;2000;47.572;14.202;2023-11-21T08:11:26;14.00;;;7.27;;
3971;SDS011;2000;47.572;14.202;2023-11-21T08:13:56;14.60;;;8.10;;
3971;SDS011;2000;47.572;14.202;2023-11-21T08:16:24;13.37;;;7.20;;
3971;SDS011;2000;47.572;14.202;2023-11-21T08:18:51;16.77;;;7.10;;
3971;SDS011;2000;47.572;14.202;2023-11-21T08:21:18;11.87;;;6.57;;
3971;SDS011;2000;47.572;14.202;2023-11-21T08:23:46;14.10;;;7.03;;
3971;SDS011;2000;47.572;14.202;2023-11-21T08:26:15;16.43;;;8.27;;
3971;SDS011;2000;47.572;14.202;2023-11-21T08:28:45;15.20;;;6.20;;
3971;SDS011;2000;47.572;14.202;2023-11-21T08:31:14;31.10;;;10.40;;
3971;SDS011;2000;47.572;14.202;2023-11-21T08:33:41;19.50;;;9.13;;
3971;SDS011;2000;47.572;14.202;2023-11-21T08:36:09;26.10;;;10.20;;
3971;SDS011;2000;47.572;14.202;2023-11-21T08:38:38;24.57;;;10.40;;
3971;SDS011;2000;47.572;14.202;2023-11-21T08:41:06;19.87;;;10.33;;
3971;SDS011;2000;47.572;14.202;2023-11-21T08:43:38;13.47;;;6.97;;
3971;SDS011;2000;47.572;14.202;2023-11-21T08:46:06;13.43;;;7.30;;
3971;SDS011;2000;47.572;14.202;2023-11-21T08:48:36;13.20;;;8.00;;
3971;SDS011;2000;47.572;14.202;2023-11-21T08:51:03;16.13;;;9.17;;
3971;SDS011;2000;47.572;14.202;2023-11-21T08:53:31;14.80;;;6.47;;
3971;SDS011;2000;47.572;14.202;2023-11-21T08:55:58;24.07;;;8.33;;
3971;SDS011;2000;47.572;14.202;2023-11-21T08:58:25;15.70;;;8.30;;
3971;SDS011;2000;47.572;14.202;2023-11-21T09:00:52;15.37;;;8.77;;
3971;SDS011;2000;47.572;14.202;2023-11-21T09:03:19;18.87;;;8.60;;
3971;SDS011;2000;47.572;14.202;2023-11-21T09:05:47;17.83;;;8.70;;
3971;SDS011;2000;47.572;14.202;2023-11-21T09:08:14;18.10;;;8.10;;
3971;SDS011;2000;47.572;14.202;2023-11-21T09:10:41;11.63;;;7.33;;
3971;SDS011;2000;47.572;14.202;2023-11-21T09:13:09;15.47;;;7.10;;
3971;SDS011;2000;47.572;14.202;2023-11-21T09:15:37;12.57;;;8.03;;
3971;SDS011;2000;47.572;14.202;2023-11-21T09:18:04;13.90;;;8.37;;
3971;SDS011;2000;47.572;14.202;2023-11-21T09:20:31;12.83;;;7.50;;
3971;SDS011;2000;47.572;14.202;2023-11-21T09:22:59;14.40;;;7.13;;
3971;SDS011;2000;47.572;14.202;2023-11-21T09:25:26;12.17;;;5.80;;
3971;SDS011;2000;47.572;14.202;2023-11-21T09:27:55;18.67;;;11.90;;
3971;SDS011;2000;47.572;14.202;2023-11-21T09:30:24;26.60;;;12.60;;
3971;SDS011;2000;47.572;14.202;2023-11-21T09:32:51;21.80;;;10.73;;
3971;SDS011;2000;47.572;14.202;2023-11-21T09:35:18;14.33;;;7.40;;
3971;SDS011;2000;47.572;14.202;2023-11-21T09:37:45;9.20;;;5.30;;
3971;SDS011;2000;47.572;14.202;2023-11-21T09:40:15;15.77;;;5.20;;
3971;SDS011;2000;47.572;14.202;2023-11-21T09:42:52;10.10;;;3.40;;
3971;SDS011;2000;47.572;14.202;2023-11-21T09:45:24;3.90;;;3.23;;
3971;SDS011;2000;47.572;14.202;2023-11-21T09:47:55;4.73;;;3.07;;
3971;SDS011;2000;47.572;14.202;2023-11-21T09:50:23;4.90;;;2.87;;
3971;SDS011;2000;47.572;14.202;2023-11-21T09:53:11;5.20;;;2.43;;
3971;SDS011;2000;47.572;14.202;2023-11-21T09:55:44;5.17;;;1.90;;
3971;SDS011;2000;47.572;14.202;2023-11-21T09:58:13;8.77;;;2.30;;
3971;SDS011;2000;47.572;14.202;2023-11-21T10:00:41;9.93;;;4.03;;
3971;SDS011;2000;47.572;14.202;2023-11-21T10:03:09;8.80;;;6.20;;
3971;SDS011;2000;47.572;14.202;2023-11-21T10:05:37;9.40;;;5.20;;
3971;SDS011;2000;47.572;14.202;2023-11-21T10:08:07;11.87;;;6.03;;
3971;SDS011;2000;47.572;14.202;2023-11-21T10:10:36;18.63;;;8.00;;
3971;SDS011;2000;47.572;14.202;2023-11-21T10:13:05;9.00;;;5.10;;
3971;SDS011;2000;47.572;14.202;2023-11-21T10:15:34;17.13;;;8.77;;
3971;SDS011;2000;47.572;14.202;2023-11-21T10:18:04;20.07;;;10.33;;
3971;SDS011;2000;47.572;14.202;2023-11-21T10:20:33;10.30;;;6.87;;
3971;SDS011;2000;47.572;14.202;2023-11-21T10:23:00;10.90;;;4.63;;
3971;SDS011;2000;47.572;14.202;2023-11-21T10:25:31;10.50;;;5.20;;
3971;SDS011;2000;47.572;14.202;2023-11-21T10:27:59;8.80;;;4.03;;
3971;SDS011;2000;47.572;14.202;2023-11-21T10:30:32;9.10;;;5.00;;
3971;SDS011;2000;47.572;14.202;2023-11-21T10:33:04;9.50;;;4.87;;
3971;SDS011;2000;47.572;14.202;2023-11-21T10:38:14;7.50;;;3.93;;
3971;SDS011;2000;47.572;14.202;2023-11-21T10:40:41;7.87;;;4.30;;
3971;SDS011;2000;47.572;14.202;2023-11-21T10:43:09;8.97;;;4.00;;
3971;SDS011;2000;47.572;14.202;2023-11-21T10:45:37;11.03;;;4.37;;
3971;SDS011;2000;47.572;14.202;2023-11-21T10:48:13;7.57;;;3.07;;
3971;SDS011;2000;47.572;14.202;2023-11-21T10:50:44;4.50;;;3.40;;
3971;SDS011;2000;47.572;14.202;2023-11-21T10:53:12;4.00;;;3.13;;
3971;SDS011;2000;47.572;14.202;2023-11-21T10:55:40;13.20;;;4.10;;
3971;SDS011;2000;47.572;14.202;2023-11-21T10:58:07;10.57;;;2.80;;
3971;SDS011;2000;47.572;14.202;2023-11-21T11:00:37;8.03;;;4.20;;
3971;SDS011;2000;47.572;14.202;2023-11-21T11:03:07;9.40;;;3.90;;
3971;SDS011;2000;47.572;14.202;2023-11-21T11:05:46;7.97;;;3.53;;
3971;SDS011;2000;47.572;14.202;2023-11-21T11:08:21;7.87;;;4.33;;
3971;SDS011;2000;47.572;14.202;2023-11-21T11:10:54;11.33;;;4.40;;
3971;SDS011;2000;47.572;14.202;2023-11-21T11:13:22;12.03;;;5.53;;
3971;SDS011;2000;47.572;14.202;2023-11-21T11:15:49;11.83;;;4.80;;
3971;SDS011;2000;47.572;14.202;2023-11-21T11:18:17;13.50;;;6.20;;
3971;SDS011;2000;47.572;14.202;2023-11-21T11:20:45;11.73;;;6.80;;
3971;SDS011;2000;47.572;14.202;2023-11-21T11:26:08;10.67;;;5.40;;
3971;SDS011;2000;47.572;14.202;2023-11-21T11:35:04;26.03;;;4.90;;
3971;SDS011;2000;47.572;14.202;2023-11-21T11:37:33;13.70;;;5.37;;
3971;SDS011;2000;47.572;14.202;2023-11-21T11:40:00;7.97;;;4.87;;
3971;SDS011;2000;47.572;14.202;2023-11-21T11:42:27;16.77;;;6.27;;
3971;SDS011;2000;47.572;14.202;2023-11-21T11:44:57;8.20;;;6.00;;
3971;SDS011;2000;47.572;14.202;2023-11-21T11:47:25;11.97;;;6.10;;
3971;SDS011;2000;47.572;14.202;2023-11-21T11:52:40;13.63;;;5.33;;
3971;SDS011;2000;47.572;14.202;2023-11-21T11:55:09;8.73;;;5.40;;
3971;SDS011;2000;47.572;14.202;2023-11-21T11:57:46;13.33;;;6.77;;
3971;SDS011;2000;47.572;14.202;2023-11-21T12:00:16;11.03;;;6.93;;
3971;SDS011;2000;47.572;14.202;2023-11-21T12:02:45;21.30;;;11.17;;
3971;SDS011;2000;47.572;14.202;2023-11-21T12:05:18;13.47;;;6.00;;
3971;SDS011;2000;47.572;14.202;2023-11-21T12:07:50;6.77;;;3.60;;
3971;SDS011;2000;47.572;14.202;2023-11-21T12:10:22;7.83;;;3.70;;
3971;SDS011;2000;47.572;14.202;2023-11-21T12:12:55;5.10;;;2.70;;
3971;SDS011;2000;47.572;14.202;2023-11-21T12:15:23;5.30;;;3.20;;
3971;SDS011;2000;47.572;14.202;2023-11-21T12:17:52;9.03;;;2.87;;
3971;SDS011;2000;47.572;14.202;2023-11-21T12:20:21;6.83;;;3.50;;
3971;SDS011;2000;47.572;14.202;2023-11-21T12:22:52;10.90;;;4.03;;
3971;SDS011;2000;47.572;14.202;2023-11-21T12:25:21;10.63;;;5.20;;
3971;SDS011;2000;47.572;14.202;2023-11-21T12:27:52;11.77;;;5.53;;
3971;SDS011;2000;47.572;14.202;2023-11-21T12:30:20;8.13;;;4.60;;
3971;SDS011;2000;47.572;14.202;2023-11-21T12:32:49;7.63;;;4.27;;
3971;SDS011;2000;47.572;14.202;2023-11-21T12:35:21;13.90;;;5.07;;
3971;SDS011;2000;47.572;14.202;2023-11-21T12:37:50;6.23;;;3.10;;
3971;SDS011;2000;47.572;14.202;2023-11-21T12:40:20;14.57;;;3.27;;
3971;SDS011;2000;47.572;14.202;2023-11-21T12:42:53;4.93;;;3.20;;
3971;SDS011;2000;47.572;14.202;2023-11-21T12:45:23;8.27;;;2.67;;
3971;SDS011;2000;47.572;14.202;2023-11-21T12:47:55;10.13;;;4.30;;
3971;SDS011;2000;47.572;14.202;2023-11-21T12:50:29;7.33;;;4.33;;
3971;SDS011;2000;47.572;14.202;2023-11-21T12:53:01;4.87;;;3.80;;
3971;SDS011;2000;47.572;14.202;2023-11-21T12:55:30;5.80;;;2.80;;
3971;SDS011;2000;47.572;14.202;2023-11-21T12:58:01;9.50;;;2.17;;
3971;SDS011;2000;47.572;14.202;2023-11-21T13:00:39;6.50;;;2.80;;
3971;SDS011;2000;47.572;14.202;2023-11-21T13:03:10;12.73;;;1.80;;
3971;SDS011;2000;47.572;14.202;2023-11-21T13:05:40;7.33;;;2.50;;
3971;SDS011;2000;47.572;14.202;2023-11-21T13:08:14;5.70;;;2.13;;
3971;SDS011;2000;47.572;14.202;2023-11-21T13:10:48;13.73;;;2.17;;
3971;SDS011;2000;47.572;14.202;2023-11-21T13:13:23;5.37;;;1.87;;
3971;SDS011;2000;47.572;14.202;2023-11-21T13:15:59;2.50;;;1.20;;
3971;SDS011;2000;47.572;14.202;2023-11-21T13:18:35;1.47;;;1.37;;
3971;SDS011;2000;47.572;14.202;2023-11-21T13:21:05;7.43;;;2.40;;
3971;SDS011;2000;47.572;14.202;2023-11-21T13:23:48;6.30;;;3.10;;
3971;SDS011;2000;47.572;14.202;2023-11-21T13:26:35;9.00;;;4.37;;
3971;SDS011;2000;47.572;14.202;2023-11-21T13:29:08;7.20;;;4.17;;
3971;SDS011;2000;47.572;14.202;2023-11-21T13:32:01;6.67;;;2.67;;
3971;SDS011;2000;47.572;14.202;2023-11-21T13:34:47;8.93;;;3.30;;
3971;SDS011;2000;47.572;14.202;2023-11-21T13:37:21;8.20;;;4.03;;
3971;SDS011;2000;47.572;14.202;2023-11-21T13:39:49;9.10;;;2.20;;
3971;SDS011;2000;47.572;14.202;2023-11-21T13:42:17;3.73;;;1.70;;
3971;SDS011;2000;47.572;14.202;2023-11-21T13:44:44;2.37;;;1.67;;
3971;SDS011;2000;47.572;14.202;2023-11-21T13:47:14;3.80;;;1.73;;
3971;SDS011;2000;47.572;14.202;2023-11-21T13:49:41;22.10;;;7.63;;
3971;SDS011;2000;47.572;14.202;2023-11-21T13:52:09;92.73;;;37.97;;
3971;SDS011;2000;47.572;14.202;2023-11-21T13:54:42;63.07;;;23.13;;
3971;SDS011;2000;47.572;14.202;2023-11-21T13:57:09;26.73;;;7.23;;
3971;SDS011;2000;47.572;14.202;2023-11-21T13:59:36;6.80;;;3.87;;
3971;SDS011;2000;47.572;14.202;2023-11-21T14:02:05;5.60;;;3.20;;
3971;SDS011;2000;47.572;14.202;2023-11-21T14:04:45;8.40;;;4.03;;
3971;SDS011;2000;47.572;14.202;2023-11-21T14:07:23;4.03;;;3.20;;
3971;SDS011;2000;47.572;14.202;2023-11-21T14:10:03;5.80;;;1.93;;
3971;SDS011;2000;47.572;14.202;2023-11-21T14:12:34;1.43;;;1.30;;
3971;SDS011;2000;47.572;14.202;2023-11-21T14:15:05;1.27;;;1.17;;
3971;SDS011;2000;47.572;14.202;2023-11-21T14:17:36;4.90;;;2.37;;
3971;SDS011;2000;47.572;14.202;2023-11-21T14:20:06;5.10;;;3.20;;
3971;SDS011;2000;47.572;14.202;2023-11-21T14:22:41;6.23;;;2.90;;
3971;SDS011;2000;47.572;14.202;2023-11-21T14:25:08;2.73;;;1.40;;
3971;SDS011;2000;47.572;14.202;2023-11-21T14:27:38;0.50;;;0.47;;
3971;SDS011;2000;47.572;14.202;2023-11-21T14:30:05;1.27;;;0.90;;
3971;SDS011;2000;47.572;14.202;2023-11-21T14:32:33;1.50;;;0.30;;
3971;SDS011;2000;47.572;14.202;2023-11-21T14:35:00;0.30;;;0.20;;
3971;SDS011;2000;47.572;14.202;2023-11-21T14:37:27;0.70;;;0.57;;
3971;SDS011;2000;47.572;14.202;2023-11-21T14:39:54;4.47;;;2.67;;
3971;SDS011;2000;47.572;14.202;2023-11-21T14:42:22;1.33;;;1.23;;
3971;SDS011;2000;47.572;14.202;2023-11-21T14:44:52;3.70;;;2.40;;
3971;SDS011;2000;47.572;14.202;2023-11-21T14:47:19;2.70;;;2.50;;
3971;SDS011;2000;47.572;14.202;2023-11-21T14:49:51;4.30;;;4.03;;
3971;SDS011;2000;47.572;14.202;2023-11-21T14:52:20;3.17;;;2.87;;
3971;SDS011;2000;47.572;14.202;2023-11-21T14:55:04;2.70;;;2.50;;
3971;SDS011;2000;47.572;14.202;2023-11-21T14:57:50;3.33;;;2.13;;
3971;SDS011;2000;47.572;14.202;2023-11-21T15:00:18;2.70;;;2.10;;
3971;SDS011;2000;47.572;14.202;2023-11-21T15:03:18;1.50;;;1.40;;
3971;SDS011;2000;47.572;14.202;2023-11-21T15:06:06;6.80;;;2.00;;
3971;SDS011;2000;47.572;14.202;2023-11-21T15:08:56;6.80;;;5.00;;
3971;SDS011;2000;47.572;14.202;2023-11-21T15:11:43;27.13;;;14.90;;
3971;SDS011;2000;47.572;14.202;2023-11-21T15:14:10;23.57;;;13.00;;
3971;SDS011;2000;47.572;14.202;2023-11-21T15:16:42;19.40;;;11.40;;
3971;SDS011;2000;47.572;14.202;2023-11-21T15:19:13;2.30;;;1.60;;
3971;SDS011;2000;47.572;14.202;2023-11-21T15:21:44;1.67;;;1.03;;